createdAt,value
2018-08-22T00:01:36.084Z,17.83
2018-08-22T00:07:41.143Z,17.81
2018-08-22T00:13:45.856Z,17.73
2018-08-22T00:19:50.596Z,17.87
2018-08-22T00:25:55.340Z,17.95
2018-08-22T00:31:59.978Z,17.63
2018-08-22T00:38:04.862Z,17.57
2018-08-22T00:44:10.134Z,17.57
2018-08-22T00:50:14.900Z,17.70
2018-08-22T00:56:19.965Z,17.54
2018-08-22T01:02:24.659Z,17.82
2018-08-22T01:08:29.843Z,17.76
2018-08-22T01:14:34.537Z,17.65
2018-08-22T01:20:40.041Z,17.68
2018-08-22T01:26:45.030Z,17.53
2018-08-22T01:32:49.686Z,17.64
2018-08-22T01:38:54.407Z,17.52
2018-08-22T01:44:59.135Z,17.50
2018-08-22T01:51:03.860Z,17.44
2018-08-22T01:57:09.120Z,17.34
2018-08-22T02:03:13.852Z,17.34
2018-08-22T02:09:18.494Z,17.19
2018-08-22T02:15:23.140Z,16.82
2018-08-22T02:21:28.059Z,16.22
2018-08-22T02:27:32.762Z,16.12
2018-08-22T02:33:37.465Z,15.67
2018-08-22T02:39:42.321Z,15.55
2018-08-22T02:45:47.147Z,15.41
2018-08-22T02:51:51.751Z,15.39
2018-08-22T02:57:56.454Z,15.34
2018-08-22T03:04:01.464Z,15.28
2018-08-22T03:10:06.459Z,15.17
2018-08-22T03:16:11.607Z,15.16
2018-08-22T03:22:17.061Z,15.10
2018-08-22T03:28:21.762Z,15.11
2018-08-22T03:34:26.545Z,15.04
2018-08-22T03:40:31.440Z,14.95
2018-08-22T03:46:36.231Z,15.03
2018-08-22T03:52:41.233Z,15.11
2018-08-22T03:58:45.980Z,15.04
2018-08-22T04:04:50.935Z,14.95
2018-08-22T04:10:55.642Z,14.92
2018-08-22T04:17:00.326Z,14.75
2018-08-22T04:23:05.210Z,14.61
2018-08-22T04:29:10.372Z,14.78
2018-08-22T04:35:15.390Z,14.78
2018-08-22T04:41:20.075Z,14.84
2018-08-22T04:47:24.924Z,14.71
2018-08-22T04:53:29.757Z,14.80
2018-08-22T04:59:34.624Z,14.84
2018-08-22T05:05:39.499Z,15.10
2018-08-22T05:11:44.231Z,15.12
2018-08-22T05:17:48.862Z,15.17
2018-08-22T05:23:53.549Z,15.55
2018-08-22T05:29:58.265Z,15.54
2018-08-22T05:36:02.900Z,15.86
2018-08-22T05:42:08.178Z,16.41
2018-08-22T05:48:13.705Z,16.60
2018-08-22T05:54:19.020Z,16.73
2018-08-22T06:00:23.858Z,17.10
2018-08-22T06:06:28.653Z,17.36
2018-08-22T06:12:33.673Z,17.79
2018-08-22T06:18:39.150Z,18.00
2018-08-22T06:24:43.923Z,18.20
2018-08-22T06:30:48.760Z,18.42
2018-08-22T06:36:53.434Z,18.80
2018-08-22T06:42:58.378Z,19.01
2018-08-22T06:49:03.112Z,19.69
2018-08-22T06:55:08.507Z,21.35
2018-08-22T07:01:14.169Z,24.25
2018-08-22T07:07:19.605Z,24.68
2018-08-22T07:13:24.497Z,23.85
2018-08-22T07:19:29.410Z,23.44
2018-08-22T07:25:34.331Z,23.33
2018-08-22T07:31:39.779Z,23.39
2018-08-22T07:37:44.565Z,23.67
2018-08-22T07:43:49.412Z,24.02
2018-08-22T07:49:54.164Z,24.48
2018-08-22T07:55:58.948Z,24.79
2018-08-22T08:02:03.749Z,24.98
2018-08-22T08:08:08.657Z,25.73
2018-08-22T08:14:13.836Z,25.91
2018-08-22T08:20:18.980Z,26.50
2018-08-22T08:26:23.722Z,26.84
2018-08-22T08:32:28.505Z,26.97
2018-08-22T08:38:33.296Z,27.40
2018-08-22T08:44:38.516Z,28.00
2018-08-22T08:50:43.787Z,28.22
2018-08-22T08:56:48.612Z,28.67
2018-08-22T09:02:53.285Z,28.86
2018-08-22T09:08:57.964Z,29.21
2018-08-22T09:15:02.822Z,29.45
2018-08-22T09:21:07.955Z,30.06
2018-08-22T09:27:13.075Z,29.69
2018-08-22T09:33:18.757Z,29.79
2018-08-22T09:39:23.796Z,30.22
2018-08-22T09:45:28.735Z,30.45
2018-08-22T09:51:33.730Z,31.28
2018-08-22T09:57:38.735Z,31.54
2018-08-22T10:04:00.120Z,32.58
2018-08-22T10:10:05.183Z,32.74
2018-08-22T10:16:11.810Z,33.49
2018-08-22T10:22:16.621Z,34.10
2018-08-22T10:28:21.364Z,34.97
2018-08-22T10:34:26.048Z,36.30
2018-08-22T10:40:31.934Z,36.72
2018-08-22T10:46:37.109Z,37.56
2018-08-22T10:52:42.960Z,38.08
2018-08-22T10:58:47.807Z,38.02
2018-08-22T11:04:52.518Z,39.56
2018-08-22T11:10:57.567Z,40.07
2018-08-22T11:17:02.314Z,40.85
2018-08-22T11:23:24.361Z,41.28
2018-08-22T11:29:46.582Z,41.46
2018-08-22T11:35:49.436Z,42.43
2018-08-22T11:41:54.209Z,43.11
2018-08-22T11:47:59.126Z,43.88
2018-08-22T11:54:04.075Z,44.75
2018-08-22T12:00:10.059Z,43.85
2018-08-22T12:06:14.787Z,44.24
2018-08-22T12:12:20.074Z,43.35
2018-08-22T12:18:24.768Z,44.64
2018-08-22T12:24:30.096Z,43.54
2018-08-22T12:30:34.858Z,41.06
2018-08-22T12:36:39.737Z,41.73
2018-08-22T12:42:44.428Z,38.30
2018-08-22T12:48:49.513Z,37.32
2018-08-22T12:54:54.533Z,39.11
2018-08-22T13:00:59.383Z,40.67
2018-08-22T13:07:04.255Z,38.71
2018-08-22T13:13:09.575Z,39.51
2018-08-22T13:19:14.350Z,40.70
2018-08-22T13:25:19.243Z,38.27
2018-08-22T13:31:24.353Z,39.11
2018-08-22T13:37:29.084Z,41.19
2018-08-22T13:43:33.921Z,42.88
2018-08-22T13:49:39.318Z,42.87
2018-08-22T13:55:44.656Z,43.26
2018-08-22T14:01:49.766Z,41.03
2018-08-22T14:07:54.674Z,39.20
2018-08-22T14:13:59.833Z,40.21
2018-08-22T14:20:04.670Z,42.37
2018-08-22T14:26:09.658Z,42.38
2018-08-22T14:32:14.660Z,43.41
2018-08-22T14:38:19.670Z,43.94
2018-08-22T14:44:24.700Z,45.05
2018-08-22T14:50:29.763Z,43.96
2018-08-22T14:56:34.808Z,43.89
2018-08-22T15:02:39.749Z,44.23
2018-08-22T15:08:44.621Z,43.45
2018-08-22T15:14:49.612Z,44.00
2018-08-22T15:20:54.582Z,45.63
2018-08-22T15:26:59.583Z,46.69
2018-08-22T15:33:04.715Z,45.34
2018-08-22T15:39:11.200Z,45.63
2018-08-22T15:45:16.199Z,45.40
2018-08-22T15:51:21.233Z,45.54
2018-08-22T15:57:26.312Z,46.01
2018-08-22T16:03:31.266Z,43.66
2018-08-22T16:09:36.001Z,41.30
2018-08-22T16:15:40.714Z,42.99
2018-08-22T16:21:45.553Z,41.94
2018-08-22T16:27:51.363Z,43.13
2018-08-22T16:33:56.047Z,43.33
2018-08-22T16:40:01.005Z,41.60
2018-08-22T16:46:08.883Z,39.91
2018-08-22T16:52:13.520Z,38.51
2018-08-22T16:58:18.579Z,39.94
2018-08-22T17:04:23.534Z,40.54
2018-08-22T17:10:48.227Z,40.62
2018-08-22T17:16:52.867Z,39.98
2018-08-22T17:22:57.497Z,39.14
2018-08-22T17:29:02.346Z,38.38
2018-08-22T17:35:07.151Z,37.56
2018-08-22T17:41:11.826Z,36.56
2018-08-22T17:47:16.432Z,34.79
2018-08-22T17:53:21.054Z,33.18
2018-08-22T17:59:25.786Z,32.90
2018-08-22T18:05:32.975Z,31.87
2018-08-22T18:11:37.953Z,31.02
2018-08-22T18:17:42.957Z,30.03
2018-08-22T18:23:55.007Z,29.14
2018-08-22T18:29:59.671Z,28.32
2018-08-22T18:36:04.341Z,27.79
2018-08-22T18:42:09.011Z,27.55
2018-08-22T18:48:13.643Z,27.11
2018-08-22T18:54:18.520Z,27.07
2018-08-22T19:00:23.478Z,26.55
2018-08-22T19:06:28.389Z,26.43
2018-08-22T19:12:33.307Z,26.18
2018-08-22T19:18:38.172Z,25.97
2018-08-22T19:24:57.588Z,25.94
2018-08-22T19:31:02.053Z,25.80
2018-08-22T19:37:06.670Z,25.68
2018-08-22T19:43:11.270Z,25.58
2018-08-22T19:49:15.869Z,25.40
2018-08-22T19:55:20.424Z,25.23
2018-08-22T20:01:25.048Z,25.15
2018-08-22T20:07:29.680Z,25.30
2018-08-22T20:14:01.234Z,25.18
2018-08-22T20:20:06.695Z,24.96
2018-08-22T20:26:11.301Z,24.64
2018-08-22T20:32:21.003Z,24.47
2018-08-22T20:38:25.570Z,24.55
2018-08-22T20:44:30.239Z,24.52
2018-08-22T20:50:35.483Z,24.41
2018-08-22T20:56:48.674Z,24.55
2018-08-22T21:02:54.663Z,24.46
2018-08-22T21:08:59.209Z,24.24
2018-08-22T21:15:03.861Z,24.31
2018-08-22T21:21:12.525Z,24.07
2018-08-22T21:27:17.076Z,24.30
2018-08-22T21:33:21.682Z,23.94
2018-08-22T21:39:27.398Z,24.03
2018-08-22T21:45:32.016Z,23.83
2018-08-22T21:51:38.648Z,23.65
2018-08-22T21:57:43.225Z,23.71
2018-08-22T22:03:47.911Z,23.73
2018-08-22T22:09:57.262Z,23.41
2018-08-22T22:16:04.109Z,23.38
2018-08-22T22:22:08.719Z,23.25
2018-08-22T22:28:13.361Z,23.33
2018-08-22T22:34:17.952Z,22.97
2018-08-22T22:40:26.512Z,22.77
2018-08-22T22:46:31.141Z,22.66
2018-08-22T22:52:45.512Z,22.63
2018-08-22T22:58:50.107Z,22.48
2018-08-22T23:04:55.750Z,22.33
2018-08-22T23:11:00.320Z,22.24
2018-08-22T23:17:04.953Z,21.93
2018-08-22T23:23:35.694Z,21.79
2018-08-22T23:29:40.311Z,21.68
2018-08-22T23:35:44.875Z,21.68
2018-08-22T23:41:49.460Z,21.82
2018-08-22T23:47:54.115Z,21.82
2018-08-22T23:54:00.535Z,21.65
